sensor_id;sensor_type;location;lat;lon;timestamp;P1;durP1;ratioP1;P2;durP2;ratioP2
37049;SDS011;22958;51.232;6.826;2023-07-13T00:02:04;7.27;;;1.83;;
37049;SDS011;22958;51.232;6.826;2023-07-13T00:04:30;10.97;;;2.00;;
37049;SDS011;22958;51.232;6.826;2023-07-13T00:06:55;13.57;;;1.90;;
37049;SDS011;22958;51.232;6.826;2023-07-13T00:09:21;10.87;;;1.93;;
37049;SDS011;22958;51.232;6.826;2023-07-13T00:11:49;11.48;;;1.80;;
37049;SDS011;22958;51.232;6.826;2023-07-13T00:14:17;7.97;;;2.15;;
37049;SDS011;22958;51.232;6.826;2023-07-13T00:16:42;13.50;;;1.83;;
37049;SDS011;22958;51.232;6.826;2023-07-13T00:19:08;8.93;;;1.80;;
37049;SDS011;22958;51.232;6.826;2023-07-13T00:24:00;10.43;;;1.95;;
37049;SDS011;22958;51.232;6.826;2023-07-13T00:26:26;10.27;;;1.63;;
37049;SDS011;22958;51.232;6.826;2023-07-13T00:28:52;9.17;;;2.07;;
37049;SDS011;22958;51.232;6.826;2023-07-13T00:31:17;7.13;;;1.40;;
37049;SDS011;22958;51.232;6.826;2023-07-13T00:33:43;6.20;;;1.87;;
37049;SDS011;22958;51.232;6.826;2023-07-13T00:36:09;10.93;;;1.73;;
37049;SDS011;22958;51.232;6.826;2023-07-13T00:38:36;9.50;;;1.63;;
37049;SDS011;22958;51.232;6.826;2023-07-13T00:41:02;9.93;;;1.77;;
37049;SDS011;22958;51.232;6.826;2023-07-13T00:43:28;6.93;;;1.50;;
37049;SDS011;22958;51.232;6.826;2023-07-13T00:48:47;9.75;;;2.15;;
37049;SDS011;22958;51.232;6.826;2023-07-13T00:51:15;8.85;;;2.30;;
37049;SDS011;22958;51.232;6.826;2023-07-13T00:53:53;7.57;;;1.92;;
37049;SDS011;22958;51.232;6.826;2023-07-13T00:56:21;9.80;;;1.63;;
37049;SDS011;22958;51.232;6.826;2023-07-13T00:58:47;7.65;;;1.80;;
37049;SDS011;22958;51.232;6.826;2023-07-13T01:01:13;9.07;;;1.60;;
37049;SDS011;22958;51.232;6.826;2023-07-13T01:03:39;11.70;;;1.40;;
37049;SDS011;22958;51.232;6.826;2023-07-13T01:06:05;11.48;;;2.28;;
37049;SDS011;22958;51.232;6.826;2023-07-13T01:08:31;15.77;;;2.55;;
37049;SDS011;22958;51.232;6.826;2023-07-13T01:10:57;9.57;;;1.93;;
37049;SDS011;22958;51.232;6.826;2023-07-13T01:13:26;8.70;;;1.75;;
37049;SDS011;22958;51.232;6.826;2023-07-13T01:15:51;10.57;;;1.97;;
37049;SDS011;22958;51.232;6.826;2023-07-13T01:18:20;9.30;;;2.10;;
37049;SDS011;22958;51.232;6.826;2023-07-13T01:20:56;14.68;;;2.35;;
37049;SDS011;22958;51.232;6.826;2023-07-13T01:23:23;12.75;;;2.80;;
37049;SDS011;22958;51.232;6.826;2023-07-13T01:25:50;13.38;;;2.50;;
37049;SDS011;22958;51.232;6.826;2023-07-13T01:28:16;10.68;;;2.13;;
37049;SDS011;22958;51.232;6.826;2023-07-13T01:30:43;17.33;;;2.10;;
37049;SDS011;22958;51.232;6.826;2023-07-13T01:33:14;12.00;;;2.03;;
37049;SDS011;22958;51.232;6.826;2023-07-13T01:35:43;13.43;;;1.65;;
37049;SDS011;22958;51.232;6.826;2023-07-13T01:38:16;10.13;;;2.03;;
37049;SDS011;22958;51.232;6.826;2023-07-13T01:40:45;11.80;;;2.20;;
37049;SDS011;22958;51.232;6.826;2023-07-13T01:43:11;8.17;;;2.10;;
37049;SDS011;22958;51.232;6.826;2023-07-13T01:45:36;11.70;;;2.10;;
37049;SDS011;22958;51.232;6.826;2023-07-13T01:48:02;13.23;;;2.47;;
37049;SDS011;22958;51.232;6.826;2023-07-13T01:50:28;10.33;;;1.80;;
37049;SDS011;22958;51.232;6.826;2023-07-13T01:52:53;8.53;;;1.90;;
37049;SDS011;22958;51.232;6.826;2023-07-13T01:55:19;5.83;;;1.90;;
37049;SDS011;22958;51.232;6.826;2023-07-13T01:57:47;9.43;;;1.77;;
37049;SDS011;22958;51.232;6.826;2023-07-13T02:00:13;6.90;;;1.47;;
37049;SDS011;22958;51.232;6.826;2023-07-13T02:02:38;15.18;;;2.47;;
37049;SDS011;22958;51.232;6.826;2023-07-13T02:05:04;9.77;;;1.90;;
37049;SDS011;22958;51.232;6.826;2023-07-13T02:07:31;9.77;;;1.42;;
37049;SDS011;22958;51.232;6.826;2023-07-13T02:09:56;7.60;;;1.27;;
37049;SDS011;22958;51.232;6.826;2023-07-13T02:12:21;14.37;;;1.70;;
37049;SDS011;22958;51.232;6.826;2023-07-13T02:14:47;11.53;;;2.00;;
37049;SDS011;22958;51.232;6.826;2023-07-13T02:17:13;6.10;;;2.03;;
37049;SDS011;22958;51.232;6.826;2023-07-13T02:19:38;9.40;;;2.10;;
37049;SDS011;22958;51.232;6.826;2023-07-13T02:22:04;7.60;;;1.77;;
37049;SDS011;22958;51.232;6.826;2023-07-13T02:24:29;11.30;;;2.27;;
37049;SDS011;22958;51.232;6.826;2023-07-13T02:26:55;10.43;;;1.80;;
37049;SDS011;22958;51.232;6.826;2023-07-13T02:29:21;12.50;;;2.03;;
37049;SDS011;22958;51.232;6.826;2023-07-13T02:31:46;7.77;;;2.00;;
37049;SDS011;22958;51.232;6.826;2023-07-13T02:34:12;8.90;;;1.60;;
37049;SDS011;22958;51.232;6.826;2023-07-13T02:36:37;8.60;;;1.40;;
37049;SDS011;22958;51.232;6.826;2023-07-13T02:39:04;9.23;;;1.60;;
37049;SDS011;22958;51.232;6.826;2023-07-13T02:41:30;12.25;;;1.70;;
37049;SDS011;22958;51.232;6.826;2023-07-13T02:43:57;5.63;;;1.43;;
37049;SDS011;22958;51.232;6.826;2023-07-13T02:46:29;6.90;;;1.92;;
37049;SDS011;22958;51.232;6.826;2023-07-13T02:48:55;11.18;;;1.55;;
37049;SDS011;22958;51.232;6.826;2023-07-13T02:51:20;8.07;;;1.47;;
37049;SDS011;22958;51.232;6.826;2023-07-13T02:53:46;8.83;;;1.57;;
37049;SDS011;22958;51.232;6.826;2023-07-13T02:56:11;15.03;;;1.87;;
37049;SDS011;22958;51.232;6.826;2023-07-13T02:58:37;8.10;;;1.70;;
37049;SDS011;22958;51.232;6.826;2023-07-13T03:01:10;9.93;;;1.98;;
37049;SDS011;22958;51.232;6.826;2023-07-13T03:03:36;8.25;;;1.55;;
37049;SDS011;22958;51.232;6.826;2023-07-13T03:06:03;7.45;;;2.05;;
37049;SDS011;22958;51.232;6.826;2023-07-13T03:08:30;9.75;;;1.77;;
37049;SDS011;22958;51.232;6.826;2023-07-13T03:11:29;11.00;;;2.30;;
37049;SDS011;22958;51.232;6.826;2023-07-13T03:13:48;11.25;;;1.77;;
37049;SDS011;22958;51.232;6.826;2023-07-13T03:16:14;12.70;;;2.20;;
37049;SDS011;22958;51.232;6.826;2023-07-13T03:18:43;10.00;;;2.08;;
37049;SDS011;22958;51.232;6.826;2023-07-13T03:21:10;12.23;;;2.28;;
37049;SDS011;22958;51.232;6.826;2023-07-13T03:23:36;7.37;;;2.30;;
37049;SDS011;22958;51.232;6.826;2023-07-13T03:26:03;7.60;;;1.90;;
37049;SDS011;22958;51.232;6.826;2023-07-13T03:28:31;9.30;;;2.15;;
37049;SDS011;22958;51.232;6.826;2023-07-13T03:31:05;11.77;;;2.00;;
37049;SDS011;22958;51.232;6.826;2023-07-13T03:33:33;15.52;;;2.78;;
37049;SDS011;22958;51.232;6.826;2023-07-13T03:35:59;9.13;;;1.77;;
37049;SDS011;22958;51.232;6.826;2023-07-13T03:38:25;16.33;;;2.77;;
37049;SDS011;22958;51.232;6.826;2023-07-13T03:40:51;15.40;;;2.40;;
37049;SDS011;22958;51.232;6.826;2023-07-13T03:43:17;9.50;;;2.03;;
37049;SDS011;22958;51.232;6.826;2023-07-13T03:45:43;9.57;;;2.33;;
37049;SDS011;22958;51.232;6.826;2023-07-13T03:48:08;10.07;;;2.33;;
37049;SDS011;22958;51.232;6.826;2023-07-13T03:50:34;6.73;;;1.90;;
37049;SDS011;22958;51.232;6.826;2023-07-13T03:53:00;10.37;;;2.00;;
37049;SDS011;22958;51.232;6.826;2023-07-13T03:55:25;9.43;;;1.80;;
37049;SDS011;22958;51.232;6.826;2023-07-13T03:57:54;6.77;;;1.97;;
37049;SDS011;22958;51.232;6.826;2023-07-13T04:00:23;8.30;;;1.58;;
37049;SDS011;22958;51.232;6.826;2023-07-13T04:02:49;10.10;;;2.30;;
37049;SDS011;22958;51.232;6.826;2023-07-13T04:05:15;9.03;;;2.07;;
37049;SDS011;22958;51.232;6.826;2023-07-13T04:07:41;7.97;;;1.80;;
37049;SDS011;22958;51.232;6.826;2023-07-13T04:10:07;7.90;;;2.10;;
37049;SDS011;22958;51.232;6.826;2023-07-13T04:12:32;8.82;;;2.05;;
37049;SDS011;22958;51.232;6.826;2023-07-13T04:14:58;12.13;;;2.00;;
37049;SDS011;22958;51.232;6.826;2023-07-13T04:17:23;8.97;;;2.30;;
37049;SDS011;22958;51.232;6.826;2023-07-13T04:19:49;16.63;;;2.40;;
37049;SDS011;22958;51.232;6.826;2023-07-13T04:22:14;6.13;;;1.77;;
37049;SDS011;22958;51.232;6.826;2023-07-13T04:24:40;11.20;;;2.00;;
37049;SDS011;22958;51.232;6.826;2023-07-13T04:27:06;13.93;;;2.30;;
37049;SDS011;22958;51.232;6.826;2023-07-13T04:29:31;7.13;;;1.85;;
37049;SDS011;22958;51.232;6.826;2023-07-13T04:31:57;11.10;;;2.83;;
37049;SDS011;22958;51.232;6.826;2023-07-13T04:34:23;14.80;;;2.10;;
37049;SDS011;22958;51.232;6.826;2023-07-13T04:36:49;10.60;;;2.13;;
37049;SDS011;22958;51.232;6.826;2023-07-13T04:39:14;10.67;;;2.23;;
37049;SDS011;22958;51.232;6.826;2023-07-13T04:41:40;10.73;;;2.00;;
37049;SDS011;22958;51.232;6.826;2023-07-13T04:44:06;14.90;;;2.60;;
37049;SDS011;22958;51.232;6.826;2023-07-13T04:46:31;14.43;;;2.40;;
37049;SDS011;22958;51.232;6.826;2023-07-13T04:48:57;9.53;;;2.80;;
37049;SDS011;22958;51.232;6.826;2023-07-13T04:51:23;8.95;;;1.90;;
37049;SDS011;22958;51.232;6.826;2023-07-13T04:53:49;13.27;;;2.83;;
37049;SDS011;22958;51.232;6.826;2023-07-13T04:56:14;9.77;;;2.03;;
37049;SDS011;22958;51.232;6.826;2023-07-13T04:58:40;13.43;;;2.57;;
37049;SDS011;22958;51.232;6.826;2023-07-13T05:01:05;16.57;;;2.33;;
37049;SDS011;22958;51.232;6.826;2023-07-13T05:03:31;12.63;;;2.13;;
37049;SDS011;22958;51.232;6.826;2023-07-13T05:05:59;7.82;;;2.15;;
37049;SDS011;22958;51.232;6.826;2023-07-13T05:08:29;8.45;;;2.05;;
37049;SDS011;22958;51.232;6.826;2023-07-13T05:10:55;20.60;;;2.47;;
37049;SDS011;22958;51.232;6.826;2023-07-13T05:13:21;10.77;;;2.00;;
37049;SDS011;22958;51.232;6.826;2023-07-13T05:15:55;16.17;;;2.58;;
37049;SDS011;22958;51.232;6.826;2023-07-13T05:18:24;10.90;;;2.27;;
37049;SDS011;22958;51.232;6.826;2023-07-13T05:21:00;13.70;;;2.50;;
37049;SDS011;22958;51.232;6.826;2023-07-13T05:23:29;14.68;;;2.55;;
37049;SDS011;22958;51.232;6.826;2023-07-13T05:25:55;15.80;;;2.25;;
37049;SDS011;22958;51.232;6.826;2023-07-13T05:28:21;13.25;;;2.25;;
37049;SDS011;22958;51.232;6.826;2023-07-13T05:30:47;12.83;;;2.87;;
37049;SDS011;22958;51.232;6.826;2023-07-13T05:33:13;13.63;;;2.35;;
37049;SDS011;22958;51.232;6.826;2023-07-13T05:35:39;13.33;;;2.50;;
37049;SDS011;22958;51.232;6.826;2023-07-13T05:38:05;13.90;;;2.97;;
37049;SDS011;22958;51.232;6.826;2023-07-13T05:40:31;18.30;;;3.10;;
37049;SDS011;22958;51.232;6.826;2023-07-13T05:42:56;14.27;;;2.50;;
37049;SDS011;22958;51.232;6.826;2023-07-13T05:45:22;16.23;;;3.83;;
37049;SDS011;22958;51.232;6.826;2023-07-13T05:47:47;15.27;;;2.97;;
37049;SDS011;22958;51.232;6.826;2023-07-13T05:50:13;20.40;;;2.80;;
37049;SDS011;22958;51.232;6.826;2023-07-13T05:52:38;25.87;;;3.30;;
37049;SDS011;22958;51.232;6.826;2023-07-13T05:55:04;20.57;;;3.00;;
37049;SDS011;22958;51.232;6.826;2023-07-13T05:57:30;15.13;;;2.77;;
37049;SDS011;22958;51.232;6.826;2023-07-13T05:59:56;9.93;;;2.60;;
37049;SDS011;22958;51.232;6.826;2023-07-13T06:02:22;17.47;;;3.13;;
37049;SDS011;22958;51.232;6.826;2023-07-13T06:04:48;10.27;;;2.43;;
37049;SDS011;22958;51.232;6.826;2023-07-13T06:07:13;13.67;;;3.20;;
37049;SDS011;22958;51.232;6.826;2023-07-13T06:09:39;13.52;;;3.05;;
37049;SDS011;22958;51.232;6.826;2023-07-13T06:12:05;24.77;;;3.13;;
37049;SDS011;22958;51.232;6.826;2023-07-13T06:14:30;16.20;;;3.70;;
37049;SDS011;22958;51.232;6.826;2023-07-13T06:16:56;14.50;;;2.70;;
37049;SDS011;22958;51.232;6.826;2023-07-13T06:19:21;20.93;;;3.50;;
37049;SDS011;22958;51.232;6.826;2023-07-13T06:21:47;19.33;;;3.50;;
37049;SDS011;22958;51.232;6.826;2023-07-13T06:24:12;14.40;;;3.07;;
37049;SDS011;22958;51.232;6.826;2023-07-13T06:26:38;15.83;;;3.47;;
37049;SDS011;22958;51.232;6.826;2023-07-13T06:29:03;23.03;;;3.50;;
37049;SDS011;22958;51.232;6.826;2023-07-13T06:31:29;13.25;;;2.85;;
37049;SDS011;22958;51.232;6.826;2023-07-13T06:33:55;14.18;;;3.63;;
37049;SDS011;22958;51.232;6.826;2023-07-13T06:36:21;11.77;;;3.47;;
37049;SDS011;22958;51.232;6.826;2023-07-13T06:38:47;17.77;;;3.43;;
37049;SDS011;22958;51.232;6.826;2023-07-13T06:41:12;16.93;;;3.30;;
37049;SDS011;22958;51.232;6.826;2023-07-13T06:43:38;22.23;;;4.20;;
37049;SDS011;22958;51.232;6.826;2023-07-13T06:46:03;14.63;;;3.10;;
37049;SDS011;22958;51.232;6.826;2023-07-13T06:48:29;15.47;;;3.70;;
37049;SDS011;22958;51.232;6.826;2023-07-13T06:50:55;16.63;;;2.83;;
37049;SDS011;22958;51.232;6.826;2023-07-13T06:53:20;14.43;;;3.53;;
37049;SDS011;22958;51.232;6.826;2023-07-13T06:55:47;17.45;;;3.25;;
37049;SDS011;22958;51.232;6.826;2023-07-13T06:58:14;21.10;;;3.63;;
37049;SDS011;22958;51.232;6.826;2023-07-13T07:00:40;16.75;;;3.40;;
37049;SDS011;22958;51.232;6.826;2023-07-13T07:03:06;16.97;;;4.00;;
37049;SDS011;22958;51.232;6.826;2023-07-13T07:05:32;19.80;;;3.58;;
37049;SDS011;22958;51.232;6.826;2023-07-13T07:07:58;16.13;;;3.33;;
37049;SDS011;22958;51.232;6.826;2023-07-13T07:10:23;25.43;;;3.60;;
37049;SDS011;22958;51.232;6.826;2023-07-13T07:12:49;21.07;;;3.60;;
37049;SDS011;22958;51.232;6.826;2023-07-13T07:15:14;15.67;;;3.10;;
37049;SDS011;22958;51.232;6.826;2023-07-13T07:17:40;15.77;;;2.90;;
37049;SDS011;22958;51.232;6.826;2023-07-13T07:20:06;11.27;;;2.87;;
37049;SDS011;22958;51.232;6.826;2023-07-13T07:22:32;21.58;;;3.90;;
37049;SDS011;22958;51.232;6.826;2023-07-13T07:24:58;14.83;;;3.80;;
37049;SDS011;22958;51.232;6.826;2023-07-13T07:27:24;12.67;;;3.83;;
37049;SDS011;22958;51.232;6.826;2023-07-13T07:29:50;15.10;;;2.83;;
37049;SDS011;22958;51.232;6.826;2023-07-13T07:32:15;16.83;;;3.63;;
37049;SDS011;22958;51.232;6.826;2023-07-13T07:34:41;12.67;;;3.47;;
37049;SDS011;22958;51.232;6.826;2023-07-13T07:37:06;15.57;;;3.20;;
37049;SDS011;22958;51.232;6.826;2023-07-13T07:39:35;17.95;;;3.83;;
37049;SDS011;22958;51.232;6.826;2023-07-13T07:42:01;16.90;;;3.87;;
37049;SDS011;22958;51.232;6.826;2023-07-13T07:44:26;17.93;;;4.37;;
37049;SDS011;22958;51.232;6.826;2023-07-13T07:49:19;12.88;;;3.17;;
37049;SDS011;22958;51.232;6.826;2023-07-13T07:51:45;13.80;;;3.53;;
37049;SDS011;22958;51.232;6.826;2023-07-13T07:54:10;14.33;;;3.20;;
37049;SDS011;22958;51.232;6.826;2023-07-13T07:56:36;11.35;;;3.05;;
37049;SDS011;22958;51.232;6.826;2023-07-13T07:59:01;13.10;;;3.37;;
37049;SDS011;22958;51.232;6.826;2023-07-13T08:01:27;12.07;;;2.90;;
37049;SDS011;22958;51.232;6.826;2023-07-13T08:03:52;15.40;;;3.13;;
37049;SDS011;22958;51.232;6.826;2023-07-13T08:06:18;11.83;;;3.40;;
37049;SDS011;22958;51.232;6.826;2023-07-13T08:11:10;16.90;;;3.42;;
37049;SDS011;22958;51.232;6.826;2023-07-13T08:13:36;16.48;;;3.08;;
37049;SDS011;22958;51.232;6.826;2023-07-13T08:16:03;8.13;;;2.80;;
37049;SDS011;22958;51.232;6.826;2023-07-13T08:18:30;16.13;;;3.28;;
37049;SDS011;22958;51.232;6.826;2023-07-13T08:20:56;15.60;;;2.80;;
37049;SDS011;22958;51.232;6.826;2023-07-13T08:23:22;11.87;;;2.90;;
37049;SDS011;22958;51.232;6.826;2023-07-13T08:25:54;9.90;;;3.05;;
37049;SDS011;22958;51.232;6.826;2023-07-13T08:28:20;14.02;;;3.45;;
37049;SDS011;22958;51.232;6.826;2023-07-13T08:33:14;13.87;;;3.13;;
37049;SDS011;22958;51.232;6.826;2023-07-13T08:35:40;24.98;;;3.92;;
37049;SDS011;22958;51.232;6.826;2023-07-13T08:38:06;12.10;;;3.57;;
37049;SDS011;22958;51.232;6.826;2023-07-13T08:40:31;16.73;;;4.10;;
37049;SDS011;22958;51.232;6.826;2023-07-13T08:42:59;18.88;;;3.65;;
37049;SDS011;22958;51.232;6.826;2023-07-13T08:45:29;15.95;;;3.33;;
37049;SDS011;22958;51.232;6.826;2023-07-13T08:48:16;21.45;;;2.92;;
37049;SDS011;22958;51.232;6.826;2023-07-13T08:51:00;14.93;;;3.88;;
37049;SDS011;22958;51.232;6.826;2023-07-13T08:53:47;15.63;;;3.80;;
37049;SDS011;22958;51.232;6.826;2023-07-13T08:56:17;17.38;;;3.85;;
37049;SDS011;22958;51.232;6.826;2023-07-13T08:58:45;18.35;;;3.80;;
37049;SDS011;22958;51.232;6.826;2023-07-13T09:01:40;17.63;;;3.70;;
37049;SDS011;22958;51.232;6.826;2023-07-13T09:04:23;19.38;;;3.63;;
37049;SDS011;22958;51.232;6.826;2023-07-13T09:12:40;19.00;;;3.88;;
37049;SDS011;22958;51.232;6.826;2023-07-13T09:15:17;14.13;;;3.85;;
37049;SDS011;22958;51.232;6.826;2023-07-13T09:18:01;15.18;;;4.03;;
37049;SDS011;22958;51.232;6.826;2023-07-13T09:21:03;18.52;;;3.95;;
37049;SDS011;22958;51.232;6.826;2023-07-13T09:23:34;17.08;;;3.65;;
37049;SDS011;22958;51.232;6.826;2023-07-13T09:28:45;17.48;;;3.80;;
37049;SDS011;22958;51.232;6.826;2023-07-13T09:31:14;21.88;;;3.70;;
37049;SDS011;22958;51.232;6.826;2023-07-13T09:33:42;23.02;;;3.70;;
37049;SDS011;22958;51.232;6.826;2023-07-13T09:36:18;16.97;;;4.00;;
37049;SDS011;22958;51.232;6.826;2023-07-13T09:38:44;21.48;;;4.38;;
37049;SDS011;22958;51.232;6.826;2023-07-13T09:41:22;14.15;;;3.72;;
37049;SDS011;22958;51.232;6.826;2023-07-13T09:46:34;15.65;;;3.67;;
37049;SDS011;22958;51.232;6.826;2023-07-13T09:49:00;17.20;;;3.10;;
37049;SDS011;22958;51.232;6.826;2023-07-13T09:51:25;13.23;;;2.63;;
37049;SDS011;22958;51.232;6.826;2023-07-13T09:53:51;15.67;;;3.20;;
37049;SDS011;22958;51.232;6.826;2023-07-13T09:56:24;12.43;;;3.10;;
37049;SDS011;22958;51.232;6.826;2023-07-13T09:58:52;14.50;;;2.60;;
37049;SDS011;22958;51.232;6.826;2023-07-13T10:01:35;8.73;;;2.88;;
37049;SDS011;22958;51.232;6.826;2023-07-13T10:04:05;15.90;;;3.28;;
37049;SDS011;22958;51.232;6.826;2023-07-13T10:06:37;18.33;;;3.33;;
37049;SDS011;22958;51.232;6.826;2023-07-13T10:09:06;13.30;;;3.03;;
37049;SDS011;22958;51.232;6.826;2023-07-13T10:11:34;15.48;;;3.08;;
37049;SDS011;22958;51.232;6.826;2023-07-13T10:14:03;10.00;;;2.70;;
37049;SDS011;22958;51.232;6.826;2023-07-13T10:16:36;9.98;;;2.47;;
37049;SDS011;22958;51.232;6.826;2023-07-13T10:19:06;8.95;;;3.13;;
37049;SDS011;22958;51.232;6.826;2023-07-13T10:21:53;9.57;;;2.20;;
37049;SDS011;22958;51.232;6.826;2023-07-13T10:24:25;15.18;;;2.28;;
37049;SDS011;22958;51.232;6.826;2023-07-13T10:29:46;9.10;;;2.55;;
37049;SDS011;22958;51.232;6.826;2023-07-13T10:32:33;9.20;;;2.38;;
37049;SDS011;22958;51.232;6.826;2023-07-13T10:34:59;12.67;;;2.40;;
37049;SDS011;22958;51.232;6.826;2023-07-13T10:37:26;10.20;;;2.72;;
37049;SDS011;22958;51.232;6.826;2023-07-13T10:39:56;9.13;;;2.70;;
37049;SDS011;22958;51.232;6.826;2023-07-13T10:42:39;9.63;;;2.70;;
37049;SDS011;22958;51.232;6.826;2023-07-13T10:45:17;15.35;;;2.83;;
37049;SDS011;22958;51.232;6.826;2023-07-13T10:47:45;12.57;;;2.72;;
37049;SDS011;22958;51.232;6.826;2023-07-13T10:50:14;14.73;;;2.85;;
37049;SDS011;22958;51.232;6.826;2023-07-13T10:52:47;8.70;;;2.70;;
37049;SDS011;22958;51.232;6.826;2023-07-13T10:55:31;10.82;;;2.30;;
37049;SDS011;22958;51.232;6.826;2023-07-13T10:58:01;7.95;;;2.65;;
37049;SDS011;22958;51.232;6.826;2023-07-13T11:00:35;10.63;;;2.38;;
37049;SDS011;22958;51.232;6.826;2023-07-13T11:03:11;7.63;;;2.58;;
37049;SDS011;22958;51.232;6.826;2023-07-13T11:05:39;13.48;;;2.60;;
37049;SDS011;22958;51.232;6.826;2023-07-13T11:08:24;8.33;;;2.70;;
37049;SDS011;22958;51.232;6.826;2023-07-13T11:10:58;14.98;;;2.85;;
37049;SDS011;22958;51.232;6.826;2023-07-13T11:13:37;9.85;;;3.20;;
37049;SDS011;22958;51.232;6.826;2023-07-13T11:16:52;16.45;;;3.17;;
37049;SDS011;22958;51.232;6.826;2023-07-13T11:21:27;9.83;;;2.17;;
37049;SDS011;22958;51.232;6.826;2023-07-13T11:24:17;6.65;;;2.53;;
37049;SDS011;22958;51.232;6.826;2023-07-13T11:31:59;9.32;;;2.20;;
37049;SDS011;22958;51.232;6.826;2023-07-13T11:34:45;14.80;;;2.45;;
37049;SDS011;22958;51.232;6.826;2023-07-13T11:37:11;10.67;;;2.50;;
37049;SDS011;22958;51.232;6.826;2023-07-13T11:39:41;10.93;;;2.33;;
37049;SDS011;22958;51.232;6.826;2023-07-13T11:42:16;15.63;;;2.45;;
37049;SDS011;22958;51.232;6.826;2023-07-13T11:44:45;10.45;;;2.42;;
37049;SDS011;22958;51.232;6.826;2023-07-13T11:47:20;7.60;;;2.10;;
37049;SDS011;22958;51.232;6.826;2023-07-13T11:49:51;10.13;;;1.65;;
37049;SDS011;22958;51.232;6.826;2023-07-13T11:52:23;9.80;;;2.42;;
37049;SDS011;22958;51.232;6.826;2023-07-13T11:54:57;9.10;;;2.15;;
37049;SDS011;22958;51.232;6.826;2023-07-13T11:57:32;7.13;;;2.35;;
37049;SDS011;22958;51.232;6.826;2023-07-13T12:00:00;9.82;;;2.47;;
37049;SDS011;22958;51.232;6.826;2023-07-13T12:02:36;8.18;;;1.95;;
37049;SDS011;22958;51.232;6.826;2023-07-13T12:05:05;10.77;;;2.58;;
37049;SDS011;22958;51.232;6.826;2023-07-13T12:07:36;7.85;;;1.95;;
37049;SDS011;22958;51.232;6.826;2023-07-13T12:10:10;7.15;;;2.42;;
37049;SDS011;22958;51.232;6.826;2023-07-13T12:13:00;5.72;;;1.73;;
37049;SDS011;22958;51.232;6.826;2023-07-13T12:15:40;9.73;;;1.75;;
37049;SDS011;22958;51.232;6.826;2023-07-13T12:18:18;9.80;;;2.30;;
37049;SDS011;22958;51.232;6.826;2023-07-13T12:20:45;8.65;;;1.80;;
37049;SDS011;22958;51.232;6.826;2023-07-13T12:23:20;6.15;;;1.98;;
37049;SDS011;22958;51.232;6.826;2023-07-13T12:25:53;10.13;;;2.10;;
37049;SDS011;22958;51.232;6.826;2023-07-13T12:28:19;7.68;;;2.17;;
37049;SDS011;22958;51.232;6.826;2023-07-13T12:30:47;14.98;;;2.03;;
37049;SDS011;22958;51.232;6.826;2023-07-13T12:33:13;8.98;;;1.95;;
37049;SDS011;22958;51.232;6.826;2023-07-13T12:35:40;4.60;;;1.83;;
37049;SDS011;22958;51.232;6.826;2023-07-13T12:38:10;8.02;;;1.45;;
37049;SDS011;22958;51.232;6.826;2023-07-13T12:40:36;5.95;;;1.75;;
37049;SDS011;22958;51.232;6.826;2023-07-13T12:43:03;4.32;;;1.17;;
37049;SDS011;22958;51.232;6.826;2023-07-13T12:45:31;10.73;;;2.08;;
37049;SDS011;22958;51.232;6.826;2023-07-13T12:48:03;7.25;;;1.92;;
37049;SDS011;22958;51.232;6.826;2023-07-13T12:50:40;6.97;;;1.70;;
37049;SDS011;22958;51.232;6.826;2023-07-13T12:53:14;5.97;;;1.70;;
37049;SDS011;22958;51.232;6.826;2023-07-13T12:55:52;7.03;;;1.77;;
37049;SDS011;22958;51.232;6.826;2023-07-13T12:58:31;5.05;;;1.63;;
37049;SDS011;22958;51.232;6.826;2023-07-13T13:01:01;6.25;;;1.42;;
37049;SDS011;22958;51.232;6.826;2023-07-13T13:03:32;10.82;;;2.03;;
37049;SDS011;22958;51.232;6.826;2023-07-13T13:06:00;10.35;;;2.08;;
37049;SDS011;22958;51.232;6.826;2023-07-13T13:08:32;7.72;;;1.80;;
37049;SDS011;22958;51.232;6.826;2023-07-13T13:10:58;9.40;;;2.58;;
37049;SDS011;22958;51.232;6.826;2023-07-13T13:13:24;7.13;;;2.08;;
37049;SDS011;22958;51.232;6.826;2023-07-13T13:15:50;9.80;;;1.80;;
37049;SDS011;22958;51.232;6.826;2023-07-13T13:18:16;4.97;;;1.55;;
37049;SDS011;22958;51.232;6.826;2023-07-13T13:20:44;6.88;;;2.25;;
37049;SDS011;22958;51.232;6.826;2023-07-13T13:23:12;5.03;;;1.67;;
37049;SDS011;22958;51.232;6.826;2023-07-13T13:25:42;5.75;;;1.80;;
37049;SDS011;22958;51.232;6.826;2023-07-13T13:28:15;6.47;;;1.35;;
37049;SDS011;22958;51.232;6.826;2023-07-13T13:30:43;5.18;;;1.83;;
37049;SDS011;22958;51.232;6.826;2023-07-13T13:33:14;5.55;;;1.52;;
37049;SDS011;22958;51.232;6.826;2023-07-13T13:35:41;8.73;;;1.90;;
37049;SDS011;22958;51.232;6.826;2023-07-13T13:38:11;10.23;;;2.45;;
37049;SDS011;22958;51.232;6.826;2023-07-13T13:40:39;15.10;;;1.90;;
37049;SDS011;22958;51.232;6.826;2023-07-13T13:43:21;17.38;;;2.28;;
37049;SDS011;22958;51.232;6.826;2023-07-13T13:45:51;8.25;;;2.00;;
37049;SDS011;22958;51.232;6.826;2023-07-13T13:48:19;7.15;;;2.05;;
37049;SDS011;22958;51.232;6.826;2023-07-13T13:50:47;7.82;;;2.10;;
37049;SDS011;22958;51.232;6.826;2023-07-13T13:53:13;11.10;;;1.85;;
37049;SDS011;22958;51.232;6.826;2023-07-13T13:55:39;8.02;;;2.00;;
37049;SDS011;22958;51.232;6.826;2023-07-13T13:58:07;6.05;;;2.15;;
37049;SDS011;22958;51.232;6.826;2023-07-13T14:00:34;7.70;;;1.67;;
37049;SDS011;22958;51.232;6.826;2023-07-13T14:03:00;4.95;;;1.48;;
37049;SDS011;22958;51.232;6.826;2023-07-13T14:05:26;11.38;;;1.98;;
37049;SDS011;22958;51.232;6.826;2023-07-13T14:07:52;6.70;;;1.92;;
37049;SDS011;22958;51.232;6.826;2023-07-13T14:12:53;15.80;;;1.88;;
37049;SDS011;22958;51.232;6.826;2023-07-13T14:15:22;9.13;;;2.33;;
37049;SDS011;22958;51.232;6.826;2023-07-13T14:17:52;6.90;;;1.55;;
37049;SDS011;22958;51.232;6.826;2023-07-13T14:20:19;7.15;;;2.05;;
37049;SDS011;22958;51.232;6.826;2023-07-13T14:22:48;9.13;;;1.65;;
37049;SDS011;22958;51.232;6.826;2023-07-13T14:25:15;9.07;;;1.95;;
37049;SDS011;22958;51.232;6.826;2023-07-13T14:27:43;8.07;;;1.90;;
37049;SDS011;22958;51.232;6.826;2023-07-13T14:30:13;5.93;;;1.98;;
37049;SDS011;22958;51.232;6.826;2023-07-13T14:32:43;9.13;;;2.00;;
37049;SDS011;22958;51.232;6.826;2023-07-13T14:35:12;6.85;;;1.92;;
37049;SDS011;22958;51.232;6.826;2023-07-13T14:37:41;7.30;;;2.17;;
37049;SDS011;22958;51.232;6.826;2023-07-13T14:40:19;7.68;;;2.10;;
37049;SDS011;22958;51.232;6.826;2023-07-13T14:42:50;7.63;;;1.63;;
37049;SDS011;22958;51.232;6.826;2023-07-13T14:45:16;6.40;;;1.73;;
37049;SDS011;22958;51.232;6.826;2023-07-13T14:47:43;9.55;;;1.80;;
37049;SDS011;22958;51.232;6.826;2023-07-13T14:50:16;6.80;;;1.88;;
37049;SDS011;22958;51.232;6.826;2023-07-13T14:52:44;8.25;;;2.15;;
37049;SDS011;22958;51.232;6.826;2023-07-13T14:55:13;11.70;;;1.98;;
37049;SDS011;22958;51.232;6.826;2023-07-13T14:57:40;10.07;;;1.80;;
37049;SDS011;22958;51.232;6.826;2023-07-13T15:00:12;7.05;;;2.10;;
37049;SDS011;22958;51.232;6.826;2023-07-13T15:02:53;9.80;;;2.50;;
37049;SDS011;22958;51.232;6.826;2023-07-13T15:05:21;14.40;;;2.83;;
37049;SDS011;22958;51.232;6.826;2023-07-13T15:07:49;12.15;;;2.67;;
37049;SDS011;22958;51.232;6.826;2023-07-13T15:10:17;7.97;;;2.30;;
37049;SDS011;22958;51.232;6.826;2023-07-13T15:12:44;14.63;;;3.22;;
37049;SDS011;22958;51.232;6.826;2023-07-13T15:15:11;9.93;;;2.78;;
37049;SDS011;22958;51.232;6.826;2023-07-13T15:17:38;9.85;;;2.63;;
37049;SDS011;22958;51.232;6.826;2023-07-13T15:22:40;9.95;;;2.95;;
37049;SDS011;22958;51.232;6.826;2023-07-13T15:25:10;9.45;;;3.88;;
37049;SDS011;22958;51.232;6.826;2023-07-13T15:27:40;9.63;;;2.60;;
37049;SDS011;22958;51.232;6.826;2023-07-13T15:30:06;15.10;;;3.37;;